createdAt,value
2023-06-20T00:01:12.938Z,18.42
2023-06-20T00:03:40.132Z,18.42
2023-06-20T00:06:07.323Z,18.36
2023-06-20T00:08:34.760Z,18.32
2023-06-20T00:11:02.276Z,18.25
2023-06-20T00:13:29.689Z,18.24
2023-06-20T00:15:59.732Z,18.24
2023-06-20T00:18:28.422Z,18.21
2023-06-20T00:20:55.656Z,18.21
2023-06-20T00:23:25.095Z,18.18
2023-06-20T00:25:52.728Z,18.11
2023-06-20T00:28:21.082Z,18.16
2023-06-20T00:30:48.608Z,18.08
2023-06-20T00:33:16.035Z,18.01
2023-06-20T00:35:43.426Z,18.07
2023-06-20T00:38:10.913Z,18.03
2023-06-20T00:40:44.042Z,18.09
2023-06-20T00:43:13.857Z,18.04
2023-06-20T00:45:41.505Z,18.05
2023-06-20T00:48:09.644Z,17.97
2023-06-20T00:50:38.136Z,17.97
2023-06-20T00:53:11.588Z,18.08
2023-06-20T00:55:39.130Z,18.16
2023-06-20T00:58:06.896Z,18.15
2023-06-20T01:03:14.161Z,18.14
2023-06-20T01:06:07.144Z,18.09
2023-06-20T01:08:55.907Z,18.04
2023-06-20T01:11:29.437Z,17.99
2023-06-20T01:14:38.271Z,17.90
2023-06-20T01:17:14.601Z,17.99
2023-06-20T01:20:13.611Z,17.93
2023-06-20T01:22:58.548Z,17.91
2023-06-20T01:25:42.216Z,17.91
2023-06-20T01:28:24.475Z,17.81
2023-06-20T01:30:54.933Z,17.83
2023-06-20T01:33:28.833Z,17.76
2023-06-20T01:36:02.438Z,17.76
2023-06-20T01:38:33.825Z,17.92
2023-06-20T01:41:06.304Z,18.02
2023-06-20T01:43:36.304Z,17.99
2023-06-20T01:46:06.226Z,17.97
2023-06-20T01:48:42.046Z,17.89
2023-06-20T01:51:09.425Z,17.76
2023-06-20T01:53:44.736Z,17.67
2023-06-20T01:56:13.390Z,17.76
2023-06-20T01:58:43.996Z,17.77
2023-06-20T02:01:13.182Z,17.72
2023-06-20T02:03:42.986Z,17.54
2023-06-20T02:06:12.908Z,17.51
2023-06-20T02:08:41.829Z,17.55
2023-06-20T02:11:10.751Z,17.51
2023-06-20T02:13:38.500Z,17.42
2023-06-20T02:16:10.064Z,17.43
2023-06-20T02:18:37.902Z,17.47
2023-06-20T02:21:07.992Z,17.41
2023-06-20T02:23:39.812Z,17.45
2023-06-20T02:26:12.421Z,17.43
2023-06-20T02:28:47.596Z,17.53
2023-06-20T02:31:23.080Z,17.69
2023-06-20T02:33:54.479Z,17.54
2023-06-20T02:36:26.770Z,17.57
2023-06-20T02:38:56.660Z,17.67
2023-06-20T02:41:25.559Z,17.64
2023-06-20T02:43:54.029Z,17.64
2023-06-20T02:46:31.024Z,17.61
2023-06-20T02:49:27.941Z,17.65
2023-06-20T02:52:09.848Z,17.53
2023-06-20T02:54:49.219Z,17.65
2023-06-20T02:57:21.313Z,17.60
2023-06-20T03:00:00.174Z,17.55
2023-06-20T03:02:32.509Z,17.43
2023-06-20T03:05:05.158Z,17.47
2023-06-20T03:07:42.567Z,17.57
2023-06-20T03:10:11.141Z,17.59
2023-06-20T03:12:40.119Z,17.65
2023-06-20T03:15:08.312Z,17.74
2023-06-20T03:17:36.727Z,17.68
2023-06-20T03:20:10.030Z,17.63
2023-06-20T03:22:38.223Z,17.81
2023-06-20T03:25:06.997Z,17.78
2023-06-20T03:27:34.367Z,17.87
2023-06-20T03:30:01.737Z,17.81
2023-06-20T03:32:29.295Z,17.85
2023-06-20T03:34:57.287Z,17.99
2023-06-20T03:37:24.693Z,17.84
2023-06-20T03:39:52.139Z,17.94
2023-06-20T03:42:19.521Z,18.13
2023-06-20T03:44:48.073Z,18.13
2023-06-20T03:47:15.513Z,17.98
2023-06-20T03:49:45.060Z,17.73
2023-06-20T03:52:13.963Z,17.73
2023-06-20T03:54:42.498Z,17.97
2023-06-20T03:57:10.101Z,17.97
2023-06-20T03:59:39.438Z,18.10
2023-06-20T04:02:06.638Z,18.19
2023-06-20T04:04:34.064Z,18.33
2023-06-20T04:07:01.279Z,18.39
2023-06-20T04:09:28.716Z,18.47
2023-06-20T04:11:56.527Z,18.61
2023-06-20T04:14:26.289Z,18.65
2023-06-20T04:16:53.739Z,18.65
2023-06-20T04:19:22.592Z,18.81
2023-06-20T04:21:51.142Z,18.89
2023-06-20T04:24:20.745Z,18.98
2023-06-20T04:26:48.669Z,18.91
2023-06-20T04:29:24.248Z,19.09
2023-06-20T04:31:53.740Z,19.23
2023-06-20T04:34:24.613Z,19.38
2023-06-20T04:36:55.564Z,19.49
2023-06-20T04:39:23.760Z,19.58
2023-06-20T04:41:51.444Z,19.62
2023-06-20T04:44:24.979Z,19.65
2023-06-20T04:46:56.993Z,19.67
2023-06-20T04:49:24.470Z,19.86
2023-06-20T04:51:51.998Z,19.95
2023-06-20T04:54:21.581Z,20.08
2023-06-20T04:56:49.143Z,20.11
2023-06-20T04:59:16.529Z,20.18
2023-06-20T05:01:44.034Z,20.27
2023-06-20T05:04:11.405Z,20.37
2023-06-20T05:06:38.902Z,20.42
2023-06-20T05:09:07.345Z,20.51
2023-06-20T05:11:35.927Z,20.63
2023-06-20T05:14:03.323Z,20.71
2023-06-20T05:16:30.717Z,20.85
2023-06-20T05:18:58.283Z,20.96
2023-06-20T05:21:25.596Z,21.18
2023-06-20T05:23:53.187Z,21.27
2023-06-20T05:26:20.697Z,21.37
2023-06-20T05:28:49.093Z,21.51
2023-06-20T05:31:16.897Z,21.48
2023-06-20T05:33:44.176Z,21.46
2023-06-20T05:36:13.670Z,21.52
2023-06-20T05:38:41.984Z,21.64
2023-06-20T05:41:09.141Z,21.65
2023-06-20T05:43:36.534Z,21.68
2023-06-20T05:46:04.159Z,21.66
2023-06-20T05:48:33.989Z,21.77
2023-06-20T05:51:02.486Z,21.97
2023-06-20T05:53:30.544Z,22.05
2023-06-20T05:55:57.927Z,21.97
2023-06-20T05:58:26.499Z,21.98
2023-06-20T06:00:53.917Z,21.95
2023-06-20T06:03:21.756Z,22.09
2023-06-20T06:05:48.940Z,22.09
2023-06-20T06:08:17.054Z,22.20
2023-06-20T06:10:44.368Z,22.27
2023-06-20T06:13:11.993Z,22.36
2023-06-20T06:15:50.146Z,22.46
2023-06-20T06:18:26.279Z,22.54
2023-06-20T06:20:53.736Z,22.43
2023-06-20T06:23:21.136Z,22.73
2023-06-20T06:25:48.582Z,22.80
2023-06-20T06:28:16.613Z,22.93
2023-06-20T06:30:44.007Z,23.09
2023-06-20T06:33:12.546Z,23.13
2023-06-20T06:35:40.798Z,23.28
2023-06-20T06:38:08.216Z,23.33
2023-06-20T06:40:35.806Z,23.39
2023-06-20T06:43:03.453Z,23.41
2023-06-20T06:45:31.082Z,23.53
2023-06-20T06:48:00.362Z,23.73
2023-06-20T06:50:27.832Z,23.88
2023-06-20T06:52:55.475Z,24.11
2023-06-20T06:55:24.864Z,24.27
2023-06-20T06:57:52.220Z,24.34
2023-06-20T07:00:20.875Z,24.45
2023-06-20T07:02:48.143Z,24.67
2023-06-20T07:05:15.731Z,24.76
2023-06-20T07:07:47.964Z,24.88
2023-06-20T07:10:16.203Z,25.09
2023-06-20T07:12:43.649Z,25.21
2023-06-20T07:15:11.414Z,25.32
2023-06-20T07:17:39.155Z,25.43
2023-06-20T07:20:09.612Z,25.42
2023-06-20T07:22:37.396Z,25.63
2023-06-20T07:25:05.914Z,25.88
2023-06-20T07:27:33.025Z,26.06
2023-06-20T07:30:07.419Z,26.28
2023-06-20T07:32:35.612Z,26.43
2023-06-20T07:35:03.074Z,26.57
2023-06-20T07:37:33.586Z,26.67
2023-06-20T07:40:01.066Z,26.83
2023-06-20T07:42:28.477Z,27.03
2023-06-20T07:44:56.057Z,27.19
2023-06-20T07:47:24.357Z,27.36
2023-06-20T07:49:52.270Z,27.27
2023-06-20T07:52:19.379Z,27.25
2023-06-20T07:54:46.782Z,27.24
2023-06-20T07:57:15.260Z,27.20
2023-06-20T07:59:42.774Z,26.88
2023-06-20T08:02:09.888Z,26.95
2023-06-20T08:04:38.166Z,27.05
2023-06-20T08:07:05.615Z,27.35
2023-06-20T08:09:32.732Z,27.52
2023-06-20T08:11:59.976Z,27.85
2023-06-20T08:14:27.461Z,28.14
2023-06-20T08:16:54.863Z,28.42
2023-06-20T08:19:23.361Z,28.43
2023-06-20T08:21:50.918Z,28.61
2023-06-20T08:24:18.409Z,28.77
2023-06-20T08:26:47.759Z,28.77
2023-06-20T08:29:16.142Z,28.83
2023-06-20T08:31:43.779Z,28.98
2023-06-20T08:34:11.189Z,29.09
2023-06-20T08:36:38.676Z,29.24
2023-06-20T08:39:06.459Z,29.53
2023-06-20T08:41:34.083Z,29.72
2023-06-20T08:44:01.844Z,29.69
2023-06-20T08:46:29.497Z,29.90
2023-06-20T08:48:56.631Z,30.15
2023-06-20T08:51:24.721Z,30.32
2023-06-20T08:53:55.365Z,30.43
2023-06-20T08:56:24.748Z,30.62
2023-06-20T08:58:51.924Z,30.65
2023-06-20T09:01:19.376Z,30.73
2023-06-20T09:03:52.839Z,30.63
2023-06-20T09:06:38.901Z,30.53
2023-06-20T09:09:08.267Z,30.68
2023-06-20T09:11:39.034Z,30.52
2023-06-20T09:14:07.411Z,30.74
2023-06-20T09:16:34.836Z,31.03
2023-06-20T09:19:03.484Z,31.31
2023-06-20T09:21:30.726Z,31.48
2023-06-20T09:24:06.162Z,31.74
2023-06-20T09:26:33.834Z,31.95
2023-06-20T09:29:12.090Z,32.16
2023-06-20T09:31:50.449Z,32.41
2023-06-20T09:34:22.860Z,32.63
2023-06-20T09:36:50.310Z,32.55
2023-06-20T09:39:22.074Z,31.61
2023-06-20T09:41:54.364Z,31.05
2023-06-20T09:44:22.996Z,31.22
2023-06-20T09:46:50.529Z,31.59
2023-06-20T09:49:26.392Z,32.20
2023-06-20T09:52:04.335Z,32.76
2023-06-20T09:54:52.758Z,32.51
2023-06-20T09:57:37.928Z,32.50
2023-06-20T10:00:11.747Z,32.76
2023-06-20T10:02:41.301Z,33.14
2023-06-20T10:05:09.952Z,33.39
2023-06-20T10:07:39.000Z,33.41
2023-06-20T10:10:06.916Z,33.51
2023-06-20T10:12:34.799Z,33.20
2023-06-20T10:15:05.284Z,33.29
2023-06-20T10:17:36.851Z,33.17
2023-06-20T10:20:10.411Z,33.39
2023-06-20T10:22:44.411Z,33.59
2023-06-20T10:25:16.251Z,33.70
2023-06-20T10:28:00.340Z,33.73
2023-06-20T10:30:58.787Z,32.99
2023-06-20T10:33:34.082Z,32.61
2023-06-20T10:36:14.780Z,32.53
2023-06-20T10:39:09.387Z,32.55
2023-06-20T10:41:36.561Z,32.20
2023-06-20T10:44:05.396Z,31.95
2023-06-20T10:46:38.750Z,32.07
2023-06-20T10:49:12.126Z,32.17
2023-06-20T10:51:54.439Z,31.95
2023-06-20T10:54:22.775Z,32.00
2023-06-20T10:56:55.971Z,32.27
2023-06-20T10:59:23.564Z,31.59
2023-06-20T11:01:50.617Z,32.23
2023-06-20T11:04:18.633Z,32.96
2023-06-20T11:06:46.137Z,33.35
2023-06-20T11:09:26.681Z,34.04
2023-06-20T11:11:55.270Z,34.57
2023-06-20T11:14:25.610Z,34.61
2023-06-20T11:16:55.981Z,35.15
2023-06-20T11:19:36.790Z,34.89
2023-06-20T11:22:05.404Z,35.04
2023-06-20T11:24:36.992Z,34.99
2023-06-20T11:27:16.970Z,35.26
2023-06-20T11:29:44.429Z,35.38
2023-06-20T11:32:13.049Z,35.67
2023-06-20T11:35:04.469Z,35.88
2023-06-20T11:37:32.350Z,36.07
2023-06-20T11:39:59.748Z,36.58
2023-06-20T11:42:34.943Z,36.32
2023-06-20T11:45:11.762Z,36.07
2023-06-20T11:47:39.485Z,35.62
2023-06-20T11:50:07.501Z,35.47
2023-06-20T11:52:36.246Z,35.64
2023-06-20T11:55:05.790Z,36.30
2023-06-20T11:57:32.815Z,36.56
2023-06-20T12:00:15.965Z,36.13
2023-06-20T12:02:43.616Z,35.95
2023-06-20T12:05:12.238Z,35.75
2023-06-20T12:07:55.047Z,34.85
2023-06-20T12:10:30.346Z,34.66
2023-06-20T12:13:05.006Z,34.64
2023-06-20T12:15:34.812Z,35.47
2023-06-20T12:18:04.284Z,36.61
2023-06-20T12:20:36.964Z,35.83
2023-06-20T12:23:13.389Z,34.44
2023-06-20T12:25:40.906Z,34.04
2023-06-20T12:28:08.446Z,33.75
2023-06-20T12:30:42.127Z,33.88
2023-06-20T12:33:10.762Z,32.98
2023-06-20T12:35:39.638Z,33.05
2023-06-20T12:38:08.108Z,32.75
2023-06-20T12:40:35.403Z,32.54
2023-06-20T12:43:02.873Z,32.88
2023-06-20T12:45:30.362Z,32.47
2023-06-20T12:47:57.926Z,32.44
2023-06-20T12:50:25.447Z,32.59
2023-06-20T12:52:53.290Z,33.02
2023-06-20T12:55:21.602Z,32.72
2023-06-20T12:57:49.242Z,31.86
2023-06-20T13:00:19.689Z,32.05
2023-06-20T13:02:47.542Z,32.19
2023-06-20T13:05:15.068Z,32.62
2023-06-20T13:07:48.615Z,33.24
2023-06-20T13:10:19.019Z,34.02
2023-06-20T13:12:47.792Z,34.46
2023-06-20T13:15:19.129Z,34.22
2023-06-20T13:17:47.886Z,34.47
2023-06-20T13:20:21.506Z,34.40
2023-06-20T13:22:52.391Z,33.92
2023-06-20T13:25:21.222Z,33.89
2023-06-20T13:27:52.300Z,34.59
2023-06-20T13:30:20.195Z,34.35
2023-06-20T13:32:49.186Z,34.75
2023-06-20T13:35:16.971Z,35.19
2023-06-20T13:37:45.760Z,36.10
2023-06-20T13:40:23.868Z,36.95
2023-06-20T13:42:58.129Z,37.09
2023-06-20T13:45:31.233Z,36.39
2023-06-20T13:47:58.727Z,35.38
2023-06-20T13:50:26.379Z,35.39
2023-06-20T13:52:54.081Z,35.52
2023-06-20T13:55:21.721Z,34.82
2023-06-20T13:57:57.218Z,34.93
2023-06-20T14:00:25.385Z,34.78
2023-06-20T14:02:52.791Z,34.76
2023-06-20T14:05:35.432Z,34.16
2023-06-20T14:08:03.627Z,33.80
2023-06-20T14:10:30.819Z,33.77
2023-06-20T14:12:58.728Z,33.42
2023-06-20T14:15:26.293Z,33.43
2023-06-20T14:17:56.673Z,33.28
2023-06-20T14:20:24.644Z,33.01
2023-06-20T14:22:54.489Z,32.88
2023-06-20T14:25:21.754Z,32.99
2023-06-20T14:27:49.432Z,33.19
2023-06-20T14:30:16.972Z,33.61
2023-06-20T14:32:44.686Z,33.97
2023-06-20T14:35:12.122Z,34.12
2023-06-20T14:37:42.897Z,34.08
2023-06-20T14:40:10.370Z,34.05
2023-06-20T14:42:37.658Z,33.88
2023-06-20T14:45:09.332Z,33.63
2023-06-20T14:47:40.246Z,33.66
2023-06-20T14:50:07.932Z,33.43
2023-06-20T14:52:37.609Z,33.01
2023-06-20T14:55:05.313Z,33.04
2023-06-20T14:57:32.552Z,33.24
2023-06-20T15:00:01.000Z,33.02
2023-06-20T15:02:28.176Z,33.09
2023-06-20T15:04:55.344Z,32.99
2023-06-20T15:07:22.824Z,33.17
2023-06-20T15:09:50.362Z,33.24
2023-06-20T15:12:18.799Z,33.48
2023-06-20T15:14:48.385Z,33.30
2023-06-20T15:17:17.761Z,33.55
2023-06-20T15:19:46.596Z,33.97
2023-06-20T15:22:13.692Z,34.36
2023-06-20T15:24:41.372Z,34.26
2023-06-20T15:27:09.072Z,34.67
2023-06-20T15:29:37.631Z,34.87
2023-06-20T15:32:11.380Z,35.06
2023-06-20T15:34:38.706Z,35.04
2023-06-20T15:37:06.263Z,35.38
2023-06-20T15:39:33.655Z,35.74
2023-06-20T15:42:01.821Z,35.94
2023-06-20T15:44:30.420Z,36.14
2023-06-20T15:46:57.724Z,36.23
2023-06-20T15:49:26.870Z,35.84
2023-06-20T15:51:54.529Z,36.03
2023-06-20T15:54:22.303Z,35.39
2023-06-20T15:56:51.622Z,35.29
2023-06-20T15:59:19.140Z,35.89
2023-06-20T16:01:46.597Z,35.34
2023-06-20T16:04:14.366Z,35.50
2023-06-20T16:06:41.956Z,35.42
2023-06-20T16:09:09.600Z,35.42
2023-06-20T16:11:36.951Z,35.30
2023-06-20T16:14:04.433Z,34.89
2023-06-20T16:16:31.932Z,34.85
2023-06-20T16:19:05.398Z,34.79
2023-06-20T16:21:35.321Z,34.83
2023-06-20T16:24:06.163Z,35.03
2023-06-20T16:26:33.868Z,35.13
2023-06-20T16:29:02.610Z,35.23
2023-06-20T16:31:29.887Z,35.13
2023-06-20T16:33:57.300Z,35.07
2023-06-20T16:36:31.017Z,35.10
2023-06-20T16:38:58.274Z,35.22
2023-06-20T16:41:25.800Z,35.14
2023-06-20T16:43:53.286Z,34.80
2023-06-20T16:46:22.832Z,34.70
2023-06-20T16:48:51.144Z,34.68
2023-06-20T16:51:18.765Z,34.70
2023-06-20T16:53:46.283Z,34.62
2023-06-20T16:56:13.690Z,34.62
2023-06-20T16:58:40.989Z,34.56
2023-06-20T17:01:10.203Z,34.46
2023-06-20T17:03:49.850Z,34.41
2023-06-20T17:06:24.020Z,34.35
2023-06-20T17:08:51.311Z,34.17
2023-06-20T17:11:18.900Z,34.12
2023-06-20T17:13:47.560Z,33.98
2023-06-20T17:16:14.767Z,33.90
2023-06-20T17:18:42.144Z,33.78
2023-06-20T17:21:09.737Z,33.67
2023-06-20T17:23:43.269Z,33.47
2023-06-20T17:26:11.587Z,33.37
2023-06-20T17:28:41.698Z,33.38
2023-06-20T17:31:09.316Z,33.24
2023-06-20T17:33:36.644Z,33.09
2023-06-20T17:36:04.343Z,32.96
2023-06-20T17:38:32.112Z,32.79
2023-06-20T17:41:00.004Z,32.55
2023-06-20T17:43:29.521Z,32.21
2023-06-20T17:45:56.773Z,32.00
2023-06-20T17:48:24.600Z,31.75
2023-06-20T17:50:53.054Z,31.67
2023-06-20T17:53:20.519Z,31.36
2023-06-20T17:55:49.002Z,31.28
2023-06-20T17:58:23.542Z,31.19
2023-06-20T18:00:51.042Z,31.09
2023-06-20T18:03:18.693Z,31.13
2023-06-20T18:05:47.722Z,30.89
2023-06-20T18:08:16.960Z,30.79
2023-06-20T18:10:47.189Z,30.51
2023-06-20T18:13:14.510Z,30.45
2023-06-20T18:15:48.062Z,30.42
2023-06-20T18:18:16.665Z,30.47
2023-06-20T18:20:45.350Z,30.34
2023-06-20T18:23:14.144Z,30.29
2023-06-20T18:25:47.994Z,30.17
2023-06-20T18:28:16.518Z,30.07
2023-06-20T18:30:45.562Z,29.96
2023-06-20T18:33:13.125Z,29.70
2023-06-20T18:35:40.962Z,29.63
2023-06-20T18:38:09.093Z,29.52
2023-06-20T18:40:38.497Z,29.46
2023-06-20T18:43:07.072Z,29.10
2023-06-20T18:45:35.343Z,29.00
2023-06-20T18:48:03.033Z,29.01
2023-06-20T18:50:31.409Z,28.90
2023-06-20T18:52:58.806Z,28.84
2023-06-20T18:55:26.559Z,28.76
2023-06-20T18:57:54.455Z,28.68
2023-06-20T19:00:28.033Z,28.54
2023-06-20T19:02:55.764Z,28.53
2023-06-20T19:05:23.542Z,28.44
2023-06-20T19:07:52.736Z,28.31
2023-06-20T19:10:20.363Z,28.23
2023-06-20T19:12:47.693Z,28.13
2023-06-20T19:15:17.780Z,27.97
2023-06-20T19:17:45.185Z,27.78
2023-06-20T19:20:22.189Z,27.65
2023-06-20T19:22:51.914Z,27.49
2023-06-20T19:25:31.246Z,27.45
2023-06-20T19:28:05.039Z,27.38
2023-06-20T19:30:32.773Z,27.46
2023-06-20T19:33:07.110Z,27.38
2023-06-20T19:35:34.389Z,27.21
2023-06-20T19:38:03.485Z,27.09
2023-06-20T19:40:31.441Z,26.98
2023-06-20T19:43:00.315Z,26.78
2023-06-20T19:45:35.856Z,26.76
2023-06-20T19:48:05.714Z,26.64
2023-06-20T19:50:33.383Z,26.54
2023-06-20T19:53:01.165Z,26.48
2023-06-20T19:55:34.534Z,26.47
2023-06-20T19:58:04.240Z,26.44
2023-06-20T20:00:33.095Z,26.37
2023-06-20T20:03:00.688Z,26.35
2023-06-20T20:05:29.554Z,26.37
2023-06-20T20:07:57.511Z,26.35
2023-06-20T20:10:25.058Z,26.29
2023-06-20T20:12:52.851Z,26.19
2023-06-20T20:15:20.136Z,26.11
2023-06-20T20:17:47.737Z,26.13
2023-06-20T20:20:17.159Z,26.04
2023-06-20T20:22:44.718Z,25.97
2023-06-20T20:25:13.066Z,25.79
2023-06-20T20:27:42.075Z,25.75
2023-06-20T20:30:10.696Z,25.76
2023-06-20T20:32:43.371Z,25.52
2023-06-20T20:35:11.301Z,25.43
2023-06-20T20:37:39.292Z,25.43
2023-06-20T20:40:08.614Z,25.47
2023-06-20T20:42:37.252Z,25.35
2023-06-20T20:45:04.758Z,25.21
2023-06-20T20:47:34.656Z,25.15
2023-06-20T20:50:04.170Z,25.24
2023-06-20T20:52:31.476Z,24.81
2023-06-20T20:55:05.396Z,24.70
2023-06-20T20:57:34.020Z,24.87
2023-06-20T21:00:01.582Z,24.86
2023-06-20T21:02:28.771Z,24.85
2023-06-20T21:04:56.441Z,24.80
2023-06-20T21:07:23.941Z,24.81
2023-06-20T21:09:52.531Z,24.84
2023-06-20T21:12:19.944Z,24.91
2023-06-20T21:14:48.578Z,24.80
2023-06-20T21:17:17.381Z,24.70
2023-06-20T21:19:46.791Z,24.61
2023-06-20T21:22:14.349Z,24.54
2023-06-20T21:24:49.091Z,24.37
2023-06-20T21:27:16.702Z,24.29
2023-06-20T21:29:44.388Z,24.32
2023-06-20T21:32:13.958Z,24.19
2023-06-20T21:34:48.591Z,24.10
2023-06-20T21:37:18.252Z,24.10
2023-06-20T21:39:45.712Z,24.10
2023-06-20T21:42:12.793Z,24.03
2023-06-20T21:44:40.297Z,24.04
2023-06-20T21:47:07.925Z,23.86
2023-06-20T21:49:35.214Z,23.75
2023-06-20T21:52:02.755Z,23.75
2023-06-20T21:54:30.147Z,23.76
2023-06-20T21:56:57.724Z,23.76
2023-06-20T21:59:25.145Z,23.63
2023-06-20T22:01:52.280Z,23.62
2023-06-20T22:04:21.593Z,23.68
2023-06-20T22:06:48.995Z,23.60
2023-06-20T22:09:16.531Z,23.68
2023-06-20T22:11:44.915Z,23.62
2023-06-20T22:14:12.415Z,23.56
2023-06-20T22:16:40.799Z,23.47
2023-06-20T22:19:08.340Z,23.43
2023-06-20T22:21:35.827Z,23.33
2023-06-20T22:24:03.590Z,23.13
2023-06-20T22:26:31.118Z,22.92
2023-06-20T22:28:58.681Z,23.02
2023-06-20T22:31:27.243Z,22.95
2023-06-20T22:34:01.171Z,23.06
2023-06-20T22:36:28.715Z,23.13
2023-06-20T22:38:57.135Z,23.19
2023-06-20T22:41:25.697Z,23.19
2023-06-20T22:43:55.163Z,23.19
2023-06-20T22:46:24.809Z,23.19
2023-06-20T22:48:52.197Z,23.10
2023-06-20T22:51:19.640Z,23.14
2023-06-20T22:53:53.350Z,23.01
2023-06-20T22:56:21.436Z,22.97
2023-06-20T22:58:48.622Z,22.99
2023-06-20T23:01:22.339Z,22.96
2023-06-20T23:03:50.057Z,22.89
2023-06-20T23:06:24.223Z,22.80
2023-06-20T23:08:51.679Z,22.78
2023-06-20T23:11:19.277Z,22.65
2023-06-20T23:13:46.973Z,22.58
2023-06-20T23:16:14.733Z,22.53
2023-06-20T23:18:42.966Z,22.57
2023-06-20T23:21:11.667Z,22.61
2023-06-20T23:23:41.482Z,22.58
2023-06-20T23:26:12.069Z,22.50
2023-06-20T23:28:45.431Z,22.46
2023-06-20T23:31:13.859Z,22.42
2023-06-20T23:33:41.199Z,22.42
2023-06-20T23:36:10.113Z,22.38
2023-06-20T23:38:37.663Z,22.28
2023-06-20T23:41:05.246Z,22.27
2023-06-20T23:43:32.668Z,22.23
2023-06-20T23:46:02.658Z,21.97
2023-06-20T23:48:31.719Z,21.91
2023-06-20T23:51:00.072Z,21.80
2023-06-20T23:53:28.498Z,21.96
2023-06-20T23:55:55.912Z,22.07
2023-06-20T23:58:23.448Z,22.08
